Time;durP1;ratioP1;P1;durP2;ratioP2;P2;SDS_P1;SDS_P2;PMS_P1;PMS_P2;Temp;Humidity;BMP_temperature;BMP_pressure;BME280_temperature;BME280_humidity;BME280_pressure;Samples;Min_cycle;Max_cycle;Signal;HPM_P1;HPM_P2
2022/06/15 00:01:30;;;;;;;;;4.00;4.00;;;;;22.18;71.59;100857.88;6256324;22;74685;-96
2022/06/15 00:04:45;;;;;;;;;3.00;3.00;;;;;22.16;71.75;100858.78;6224614;22;45250;-96
2022/06/15 00:07:14;;;;;;;;;3.00;3.00;;;;;22.24;72.15;100870.31;6262034;22;44704;-96
2022/06/15 00:09:53;;;;;;;;;3.00;2.00;;;;;22.09;72.55;100834.72;6237226;22;44872;-96
2022/06/15 00:12:22;;;;;;;;;4.00;4.00;;;;;22.02;72.92;100824.94;6239403;22;45090;-95
2022/06/15 00:18:13;;;;;;;;;;;;;;;;;;;;;
2022/06/15 00:21:08;;;;;;;;;3.00;3.00;;;;;22.00;72.92;100821.38;6233441;22;70341;-96
2022/06/15 00:24:08;;;;;;;;;3.00;3.00;;;;;22.07;73.46;100835.59;6241044;22;45370;-96
2022/06/15 00:30:42;;;;;;;;;;;;;;;;;;;;;
2022/06/15 00:33:27;;;;;;;;;4.33;3.33;;;;;21.86;74.21;100790.16;6081013;23;68999;-96
2022/06/15 00:36:18;;;;;;;;;4.00;4.00;;;;;21.83;74.18;100789.28;6047967;23;46714;-96
2022/06/15 00:39:06;;;;;;;;;4.67;4.00;;;;;21.92;74.41;100804.44;6079220;23;45516;-96
2022/06/15 00:47:24;;;;;;;;;5.33;3.67;;;;;21.71;75.09;100777.72;6301396;22;46368;-96
2022/06/15 00:50:19;;;;;;;;;3.00;3.00;;;;;21.81;74.81;100791.06;6209812;22;44729;-96
2022/06/15 00:53:09;;;;;;;;;4.00;3.00;;;;;21.77;75.60;100759.03;6224258;22;45535;-96
2022/06/15 00:56:02;;;;;;;;;5.00;5.00;;;;;21.75;75.50;100759.94;6225109;22;44846;-96
2022/06/15 00:58:52;;;;;;;;;4.00;4.00;;;;;21.58;75.81;100738.56;6224718;22;46664;-96
2022/06/15 01:01:25;;;;;;;;;5.00;4.00;;;;;21.57;76.00;100737.66;6224380;22;45451;-96
2022/06/15 01:04:06;;;;;;;;;4.00;3.00;;;;;21.53;75.93;100730.53;6224370;22;45432;-96
2022/06/15 01:07:17;;;;;;;;;5.00;4.00;;;;;21.60;76.22;100751.00;6199688;22;44882;-96
2022/06/15 01:10:43;;;;;;;;;4.00;4.00;;;;;21.43;76.59;100709.19;6227266;22;45689;-96
2022/06/15 01:13:21;;;;;;;;;3.33;3.00;;;;;21.42;77.00;100711.84;6071138;23;44883;-96
2022/06/15 01:15:55;;;;;;;;;4.00;4.00;;;;;21.51;76.92;100719.88;6084074;23;44752;-96
2022/06/15 01:19:15;;;;;;;;;3.00;2.00;;;;;21.47;77.04;100706.50;6081242;23;44760;-96
2022/06/15 01:22:34;;;;;;;;;4.33;4.33;;;;;21.43;77.50;100686.94;6048102;23;45709;-96
2022/06/15 01:25:09;;;;;;;;;3.33;3.33;;;;;21.29;77.52;100673.59;6042608;23;45043;-96
2022/06/15 01:27:46;;;;;;;;;3.00;3.00;;;;;21.38;78.31;100680.72;6063530;23;44829;-96
2022/06/15 01:30:58;;;;;;;;;;;;;;;;;;;;;
2022/06/15 01:34:20;;;;;;;;;4.00;4.00;;;;;21.32;78.79;100646.91;6013330;23;75190;-96
2022/06/15 01:37:22;;;;;;;;;;;;;;;;;;;;;
2022/06/15 01:40:13;;;;;;;;;3.00;2.67;;;;;21.10;79.14;100614.91;6011258;23;67821;-96
2022/06/15 01:43:02;;;;;;;;;3.00;3.00;;;;;21.22;79.34;100635.34;5927113;24;45467;-96
2022/06/15 01:45:39;;;;;;;;;4.33;2.67;;;;;21.08;79.35;100611.38;5926265;24;47136;-96
2022/06/15 01:48:09;;;;;;;;;3.00;3.00;;;;;21.15;79.87;100605.13;5924047;23;45403;-96
2022/06/15 01:51:17;;;;;;;;;3.67;2.67;;;;;21.03;79.52;100586.47;5913386;24;45282;-95
2022/06/15 01:54:09;;;;;;;;;6.33;4.33;;;;;20.99;79.89;100574.88;5987656;23;45034;-96
2022/06/15 01:56:59;;;;;;;;;4.33;4.33;;;;;21.04;79.64;100585.56;6014188;23;47230;-96
2022/06/15 01:59:43;;;;;;;;;4.67;4.67;;;;;20.92;80.13;100554.41;5987650;23;45438;-95
2022/06/15 02:02:24;;;;;;;;;4.00;4.00;;;;;20.88;80.29;100545.50;5987314;23;45308;-96
2022/06/15 02:05:16;;;;;;;;;5.00;3.67;;;;;21.01;80.68;100565.09;6181093;23;44871;-96
2022/06/15 02:08:02;;;;;;;;;4.33;3.00;;;;;20.87;80.81;100535.75;6188637;23;46242;-96
2022/06/15 02:10:57;;;;;;;;;0.67;0.67;;;;;20.90;80.75;100540.19;6139564;23;45405;-96
2022/06/15 02:13:33;;;;;;;;;6.67;3.00;;;;;20.77;81.37;100510.88;6161822;23;44956;-96
2022/06/15 02:16:12;;;;;;;;;2.67;2.67;;;;;20.73;81.52;100495.75;6182454;23;45271;-96
2022/06/15 02:18:49;;;;;;;;;4.00;3.67;;;;;20.70;81.27;100501.06;6140044;22;47799;-96
2022/06/15 02:21:25;;;;;;;;;3.67;3.67;;;;;20.68;81.33;100506.44;6344497;22;44786;-96
2022/06/15 02:24:11;;;;;;;;;3.33;3.00;;;;;20.76;81.47;100495.75;6322095;22;45308;-96
2022/06/15 02:26:41;;;;;;;;;3.00;3.00;;;;;20.60;82.09;100485.09;6321129;22;44875;-96
2022/06/15 02:29:15;;;;;;;;;4.00;4.00;;;;;20.69;82.26;100483.31;6290281;22;46704;-96
2022/06/15 02:35:18;;;;;;;;;4.33;3.33;;;;;20.63;82.95;100455.78;6323308;22;44702;-96
2022/06/15 02:37:54;;;;;;;;;2.33;2.33;;;;;20.47;82.84;100433.56;6322128;22;44720;-96
2022/06/15 02:41:10;;;;;;;;;4.67;4.33;;;;;20.58;83.22;100449.56;6344435;22;47645;-96
2022/06/15 02:44:08;;;;;;;;;4.00;4.00;;;;;20.54;83.22;100448.66;6319971;22;45226;-96
2022/06/15 02:46:44;;;;;;;;;4.67;4.00;;;;;20.37;83.41;100398.03;6320633;22;45237;-96
2022/06/15 02:49:16;;;;;;;;;3.00;3.00;;;;;20.35;83.93;100374.94;6292897;22;45196;-96
2022/06/15 02:51:56;;;;;;;;;4.67;4.67;;;;;20.30;84.05;100382.94;6293954;22;47359;-96
2022/06/15 02:54:31;;;;;;;;;5.00;5.00;;;;;20.42;83.69;100398.03;6296975;22;44571;-96
2022/06/15 02:56:57;;;;;;;;;4.00;4.00;;;;;20.28;84.41;100363.41;6324637;22;45364;-96
2022/06/15 02:59:45;;;;;;;;;4.00;3.67;;;;;20.20;84.17;100353.63;6297165;22;45474;-96
2022/06/15 03:02:15;;;;;;;;;3.67;3.67;;;;;20.28;84.64;100364.28;6293548;22;47466;-96
2022/06/15 03:04:51;;;;;;;;;5.33;3.00;;;;;20.20;84.61;100355.44;6319279;22;45238;-96
2022/06/15 03:07:27;;;;;;;;;;;;;;;;;;;;;
2022/06/15 03:09:53;;;;;;;;;5.67;4.00;;;;;20.17;85.24;100358.09;6318420;22;69854;-96
2022/06/15 03:12:39;;;;;;;;;4.00;3.00;;;;;20.11;85.20;100348.28;6319253;22;45577;-96
2022/06/15 03:15:07;;;;;;;;;5.00;4.67;;;;;20.21;85.39;100358.06;6292438;22;45181;-96
2022/06/15 03:17:41;;;;;;;;;2.00;2.00;;;;;20.11;85.76;100337.63;6294036;22;45198;-96
2022/06/15 03:20:15;;;;;;;;;5.00;5.00;;;;;20.14;85.63;100337.66;6290818;22;45488;-96
2022/06/15 03:22:55;;;;;;;;;5.00;4.00;;;;;20.11;86.08;100337.63;6289428;22;47311;-96
2022/06/15 03:28:38;;;;;;;;;;;;;;;;;;;;;
2022/06/15 03:31:07;;;;;;;;;5.00;3.33;;;;;19.96;86.29;100312.78;6318136;22;70952;-96
2022/06/15 03:33:54;;;;;;;;;4.67;4.00;;;;;20.06;86.61;100342.97;6321188;22;47054;-96
2022/06/15 03:36:25;;;;;;;;;4.67;4.00;;;;;19.92;86.85;100320.78;6291968;22;45292;-96
2022/06/15 03:38:56;;;;;;;;;5.67;5.67;;;;;19.86;87.15;100305.69;6287038;22;44889;-96
2022/06/15 03:41:30;;;;;;;;;4.33;4.00;;;;;19.80;87.14;100290.59;6294538;22;44835;-96
2022/06/15 03:44:14;;;;;;;;;3.67;3.67;;;;;19.84;87.43;100294.16;6289123;22;46729;-96
2022/06/15 03:46:45;;;;;;;;;3.67;3.33;;;;;19.83;87.57;100289.69;6290197;22;44971;-96
2022/06/15 03:49:52;;;;;;;;;;;;;;;;;;;;;
2022/06/15 03:52:51;;;;;;;;;4.00;4.00;;;;;19.76;88.02;100273.75;6328209;22;70436;-96
2022/06/15 03:55:21;;;;;;;;;5.67;5.00;;;;;19.89;88.46;100281.72;6198926;22;47008;-96
2022/06/15 03:58:17;;;;;;;;;;;;;;;;;;;;;
2022/06/15 04:01:02;;;;;;;;;;;;;;;;;;;;;
2022/06/15 04:03:31;;;;;;;;;4.00;4.00;;;;;19.90;88.25;100286.16;6226902;22;69993;-96
2022/06/15 04:06:28;;;;;;;;;6.00;6.00;;;;;19.84;88.39;100280.84;6197343;22;47310;-96
2022/06/15 04:09:06;;;;;;;;;4.67;4.67;;;;;19.91;88.24;100297.69;6131398;23;45347;-96
2022/06/15 04:14:32;;;;;;;;;5.00;4.00;;;;;19.93;88.68;100295.91;6132006;23;44877;-96
2022/06/15 04:22:49;;;;;;;;;5.00;5.00;;;;;19.94;88.69;100287.94;6138691;23;44651;-96
2022/06/15 04:25:27;;;;;;;;;;;;;;;;;;;;;
2022/06/15 04:28:15;;;;;;;;;4.00;4.00;;;;;19.91;88.64;100289.69;6136085;23;74390;-96
2022/06/15 04:34:23;;;;;;;;;6.00;4.00;;;;;19.91;89.18;100273.72;6137168;23;45606;-96
2022/06/15 04:37:33;;;;;;;;;;;;;;;;;;;;;
2022/06/15 04:40:04;;;;;;;;;8.00;5.50;;;;;20.05;89.95;100279.03;6106156;23;74502;-96
2022/06/15 04:42:32;;;;;;;;;4.00;4.00;;;;;20.14;89.84;100292.38;6111405;23;44723;-96
2022/06/15 04:44:58;;;;;;;;;8.00;5.67;;;;;20.05;90.19;100276.38;6129784;23;45324;-96
2022/06/15 04:47:26;;;;;;;;;6.00;4.67;;;;;20.04;90.19;100256.84;6130556;23;44815;-96
2022/06/15 04:49:54;;;;;;;;;4.00;4.00;;;;;20.12;90.51;100266.63;6130991;23;47086;-96
2022/06/15 04:52:45;;;;;;;;;6.67;5.00;;;;;20.13;90.08;100263.94;6107128;23;45241;-95
2022/06/15 04:55:21;;;;;;;;;5.67;5.67;;;;;20.20;90.17;100279.03;6068956;23;44841;-96
2022/06/15 04:57:54;;;;;;;;;5.00;5.00;;;;;20.33;89.73;100292.34;6097274;23;45540;-96
2022/06/15 05:00:43;;;;;;;;;4.33;4.33;;;;;20.35;89.80;100297.66;6103998;23;47116;-96
2022/06/15 05:03:21;;;;;;;;;6.00;6.00;;;;;20.43;89.79;100302.09;6128113;23;44883;-96
2022/06/15 05:06:54;;;;;;;;;;;;;;;;;;;;;
2022/06/15 05:12:19;;;;;;;;;6.00;6.00;;;;;20.64;89.83;100305.53;6096632;23;45518;-96
2022/06/15 05:14:47;;;;;;;;;4.00;4.00;;;;;20.69;89.54;100297.56;6104962;23;44837;-95
2022/06/15 05:17:28;;;;;;;;;6.00;4.67;;;;;20.74;89.96;100285.09;6101030;23;45451;-96
2022/06/15 05:20:15;;;;;;;;;6.67;6.33;;;;;20.95;89.53;100307.19;6121627;23;45430;-96
2022/06/15 05:22:55;;;;;;;;;7.00;6.00;;;;;20.90;89.62;100292.13;6122849;23;47051;-96
2022/06/15 05:26:01;;;;;;;;;6.67;6.00;;;;;20.96;89.56;100290.31;6122675;23;45487;-96
2022/06/15 05:28:41;;;;;;;;;6.33;6.00;;;;;21.06;89.76;100295.59;6122363;23;45210;-96
2022/06/15 05:31:18;;;;;;;;;5.00;4.33;;;;;21.12;89.36;100298.25;6127528;22;45104;-96
2022/06/15 05:34:33;;;;;;;;;7.00;6.00;;;;;21.29;89.80;100313.25;6280808;22;46986;-96
2022/06/15 05:37:18;;;;;;;;;5.67;5.67;;;;;21.41;89.70;100323.88;6296891;22;45432;-96
2022/06/15 05:39:58;;;;;;;;;6.00;6.00;;;;;21.38;88.83;100323.91;6281534;22;45362;-96
2022/06/15 05:42:27;;;;;;;;;6.00;6.00;;;;;21.49;88.79;100341.63;6289608;22;44896;-96
2022/06/15 05:48:37;;;;;;;;;;;;;;;;;;;;;
2022/06/15 05:58:18;;;;;;;;;6.00;6.00;;;;;21.81;88.02;100361.88;6184740;23;45516;-96
2022/06/15 06:01:11;;;;;;;;;5.33;5.33;;;;;21.94;87.86;100376.03;6188294;23;45486;-96
2022/06/15 06:07:44;;;;;;;;;;;;;;;;;;;;;
2022/06/15 06:10:58;;;;;;;;;;;;;;;;;;;;;
2022/06/15 06:14:09;;;;;;;;;;;;;;;;;;;;;
2022/06/15 06:17:09;;;;;;;;;8.33;6.67;;;;;22.49;86.90;100431.72;6071131;23;69329;-96
2022/06/15 06:26:31;;;;;;;;;2.67;1.00;;;;;22.89;86.49;100461.66;6055130;23;45535;-90
2022/06/15 06:28:58;;;;;;;;;7.67;6.00;;;;;22.90;86.63;100463.44;6103198;23;45460;-87
2022/06/15 06:31:24;;;;;;;;;10.33;8.00;;;;;22.99;86.58;100470.47;6115546;23;45387;-87
2022/06/15 06:33:50;;;;;;;;;6.33;6.00;;;;;23.06;86.48;100471.31;6122645;23;45464;-87
2022/06/15 06:36:28;;;;;;;;;6.00;6.00;;;;;23.12;86.07;100481.06;6174479;23;45417;-91
2022/06/15 06:38:53;;;;;;;;;6.67;6.67;;;;;23.17;86.47;100485.44;6174264;23;45464;-88
2022/06/15 06:41:22;;;;;;;;;7.00;7.00;;;;;23.25;86.16;100495.16;6205116;22;45331;-89
2022/06/15 06:43:48;;;;;;;;;8.00;7.00;;;;;23.33;85.82;100512.03;6206123;22;46445;-88
2022/06/15 06:46:13;;;;;;;;;8.00;6.00;;;;;23.40;85.55;100519.06;6224824;22;45655;-89
2022/06/15 06:48:38;;;;;;;;;7.33;7.33;;;;;23.37;84.59;100535.19;6333084;22;45385;-88
2022/06/15 06:51:04;;;;;;;;;7.67;6.00;;;;;23.37;85.09;100542.34;6333159;22;45312;-88
2022/06/15 06:53:30;;;;;;;;;7.33;7.33;;;;;23.35;84.99;100553.06;6333046;22;45341;-89
2022/06/15 06:56:03;;;;;;;;;7.00;7.00;;;;;23.36;84.77;100562.88;6332098;22;45623;-89
2022/06/15 06:58:29;;;;;;;;;9.00;7.00;;;;;23.42;84.77;100546.75;6354155;22;45406;-89
2022/06/15 07:00:55;;;;;;;;;5.33;5.33;;;;;23.51;84.67;100564.50;6327468;22;45372;-88
2022/06/15 07:03:20;;;;;;;;;6.00;6.00;;;;;23.61;84.55;100577.78;6333003;22;45507;-88
2022/06/15 07:05:45;;;;;;;;;6.00;6.00;;;;;23.71;84.23;100594.66;6302114;22;45770;-89
2022/06/15 07:08:13;;;;;;;;;7.33;7.00;;;;;23.84;84.07;100600.72;6330883;22;45379;-89
2022/06/15 07:10:39;;;;;;;;;7.33;6.00;;;;;23.88;83.82;100595.34;6328390;22;45459;-92
2022/06/15 07:13:04;;;;;;;;;7.67;5.00;;;;;24.00;83.88;100615.72;6333952;22;45399;-88
2022/06/15 07:15:30;;;;;;;;;5.67;5.33;;;;;24.08;83.80;100622.78;6329305;22;45350;-88
2022/06/15 07:17:59;;;;;;;;;8.33;8.00;;;;;24.15;83.24;100631.59;6328819;22;45416;-88
2022/06/15 07:20:25;;;;;;;;;10.00;8.00;;;;;24.20;82.79;100651.22;6326297;22;45333;-86
2022/06/15 07:22:51;;;;;;;;;10.00;8.67;;;;;24.21;82.56;100667.28;6356497;22;47788;-88
2022/06/15 07:25:16;;;;;;;;;10.67;8.33;;;;;24.25;82.40;100681.53;6302981;22;45387;-87
2022/06/15 07:27:42;;;;;;;;;7.67;6.67;;;;;24.33;82.65;100692.19;6333412;22;45586;-87
2022/06/15 07:30:13;;;;;;;;;7.00;7.00;;;;;24.40;82.40;100699.28;6330260;22;45810;-87
2022/06/15 07:32:40;;;;;;;;;7.00;7.00;;;;;24.50;82.15;100715.22;6331392;22;46185;-87
2022/06/15 07:35:12;;;;;;;;;9.67;6.33;;;;;24.66;82.41;100706.03;6331162;22;45357;-88
2022/06/15 07:37:37;;;;;;;;;7.00;7.00;;;;;24.95;82.88;100705.63;6356481;22;45281;-88
2022/06/15 07:40:03;;;;;;;;;8.67;6.00;;;;;25.19;82.27;100728.56;6328762;22;45791;-88
2022/06/15 07:42:28;;;;;;;;;7.00;7.00;;;;;25.42;81.62;100731.75;6330755;22;46531;-88
2022/06/15 07:44:54;;;;;;;;;7.33;7.33;;;;;25.55;80.47;100768.25;6330208;22;45421;-89
2022/06/15 07:50:03;;;;;;;;;4.33;4.00;;;;;25.87;80.07;100791.94;6333483;22;45302;-94
2022/06/15 07:52:34;;;;;;;;;6.67;4.67;;;;;25.97;80.02;100796.25;6363329;22;48302;-93
2022/06/15 07:55:01;;;;;;;;;10.67;7.67;;;;;26.07;79.55;100815.78;6299518;22;45734;-92
2022/06/15 07:57:26;;;;;;;;;4.00;4.00;;;;;26.13;78.94;100821.94;6358990;22;45327;-92
2022/06/15 07:59:52;;;;;;;;;6.00;5.33;;;;;26.22;78.96;100827.16;6333764;22;45400;-94
2022/06/15 08:02:19;;;;;;;;;5.33;5.33;;;;;26.34;78.80;100832.28;6333461;22;45238;-93
2022/06/15 08:04:44;;;;;;;;;5.33;5.00;;;;;26.51;78.76;100833.78;6356496;22;45443;-93
2022/06/15 08:07:13;;;;;;;;;5.00;4.33;;;;;26.71;78.45;100851.31;6356353;22;45415;-92
2022/06/15 08:09:40;;;;;;;;;6.00;5.00;;;;;26.80;78.32;100860.13;6332452;22;45238;-93
2022/06/15 08:12:12;;;;;;;;;6.33;5.67;;;;;26.95;77.12;100902.00;6333786;22;46597;-93
2022/06/15 08:14:44;;;;;;;;;6.33;6.00;;;;;27.07;77.13;100901.75;6356443;22;46225;-94
2022/06/15 08:17:17;;;;;;;;;5.00;5.00;;;;;27.21;76.52;100917.63;6331611;22;45313;-92
2022/06/15 08:19:49;;;;;;;;;4.67;4.67;;;;;27.29;75.54;100932.75;6331503;22;45355;-94
2022/06/15 08:22:15;;;;;;;;;5.00;5.00;;;;;27.22;75.52;100932.88;6357373;22;47970;-94
2022/06/15 08:24:42;;;;;;;;;7.00;4.67;;;;;27.21;75.21;100941.84;6356555;22;45289;-94
2022/06/15 08:27:10;;;;;;;;;7.00;7.00;;;;;27.30;75.32;100938.09;6333548;22;45202;-94
2022/06/15 08:29:38;;;;;;;;;4.67;4.67;;;;;27.45;75.08;100934.16;6353084;22;45334;-93
2022/06/15 08:32:03;;;;;;;;;7.67;6.00;;;;;27.58;75.03;100941.06;6302939;22;48011;-92
2022/06/15 08:34:29;;;;;;;;;5.00;5.00;;;;;27.78;74.95;100954.09;6304339;22;45897;-92
2022/06/15 08:36:56;;;;;;;;;7.67;7.67;;;;;28.03;74.97;100950.81;6332012;22;45211;-93
2022/06/15 08:39:21;;;;;;;;;4.00;4.00;;;;;28.15;73.97;100968.50;6332682;22;45265;-92
2022/06/15 08:42:10;;;;;;;;;6.33;6.33;;;;;28.17;73.14;101001.72;6332068;22;45924;-94
2022/06/15 08:45:00;;;;;;;;;5.00;3.00;;;;;28.10;73.03;101009.09;6354726;22;45443;-90
2022/06/15 08:47:44;;;;;;;;;6.33;6.00;;;;;27.98;72.86;101004.91;6357413;22;45354;-92
2022/06/15 08:50:35;;;;;;;;;4.00;4.00;;;;;27.81;72.74;101004.41;6303108;22;45190;-90
2022/06/15 08:53:06;;;;;;;;;5.33;5.33;;;;;27.81;72.83;101009.81;6365204;22;47396;-96
2022/06/15 08:55:56;;;;;;;;;5.67;5.33;;;;;27.87;73.63;100982.69;6302235;22;45457;-95
2022/06/15 08:58:45;;;;;;;;;6.33;5.00;;;;;27.93;73.27;101001.44;6305335;22;45844;-93
2022/06/15 09:01:36;;;;;;;;;4.00;4.00;;;;;28.05;72.81;101002.03;6359712;22;45249;-96
2022/06/15 09:04:14;;;;;;;;;6.00;5.67;;;;;28.18;72.06;101022.41;6338680;22;45598;-95
2022/06/15 09:07:17;;;;;;;;;4.33;4.33;;;;;28.28;72.28;100997.88;6361770;22;46326;-96
2022/06/15 09:10:01;;;;;;;;;5.00;5.00;;;;;28.47;71.77;101030.72;6304359;22;45309;-96
2022/06/15 09:12:58;;;;;;;;;5.00;5.00;;;;;28.55;72.15;101027.81;6306983;22;45339;-95
2022/06/15 09:15:53;;;;;;;;;6.00;5.33;;;;;28.65;71.84;101017.66;6333820;22;46491;-95
2022/06/15 09:18:38;;;;;;;;;6.67;6.00;;;;;28.77;71.20;101044.34;6359303;22;46011;-95
2022/06/15 09:21:11;;;;;;;;;5.33;5.33;;;;;28.82;70.60;101048.72;6305592;22;45336;-95
2022/06/15 09:23:42;;;;;;;;;6.00;5.00;;;;;28.92;70.27;101052.94;6336595;22;45295;-96
2022/06/15 09:26:25;;;;;;;;;5.00;5.00;;;;;28.98;70.50;101062.69;6360312;22;48100;-95
2022/06/15 09:28:59;;;;;;;;;5.00;4.00;;;;;29.04;70.57;101059.84;6359036;22;45323;-96
2022/06/15 09:31:29;;;;;;;;;5.00;5.00;;;;;29.15;70.27;101069.50;6367638;22;45259;-95
2022/06/15 09:34:05;;;;;;;;;5.00;5.00;;;;;29.25;70.29;101076.38;6343031;22;45739;-95
2022/06/15 09:36:37;;;;;;;;;5.67;5.00;;;;;29.44;70.34;101086.69;6341828;22;45262;-96
2022/06/15 09:39:03;;;;;;;;;4.00;4.00;;;;;29.59;70.21;101074.53;6341318;22;45259;-95
2022/06/15 09:41:57;;;;;;;;;4.67;4.67;;;;;29.65;69.25;101097.78;6368862;22;45338;-96
2022/06/15 09:44:35;;;;;;;;;5.33;5.00;;;;;29.80;69.03;101091.06;6302195;22;45481;-95
2022/06/15 09:47:22;;;;;;;;;5.00;5.00;;;;;29.96;69.13;101094.19;6313871;22;48348;-94
2022/06/15 09:49:52;;;;;;;;;4.00;4.00;;;;;30.08;68.62;101089.31;6368421;22;45427;-96
2022/06/15 09:52:35;;;;;;;;;4.00;4.00;;;;;30.31;68.48;101099.41;6314888;22;45940;-95
2022/06/15 09:55:23;;;;;;;;;5.00;5.00;;;;;31.34;68.74;101105.88;6308024;22;45423;-95
2022/06/15 09:57:50;;;;;;;;;5.00;4.00;;;;;33.33;67.93;101118.78;6335148;22;45373;-96
2022/06/15 10:00:17;;;;;;;;;5.67;5.67;;;;;35.47;67.20;101130.22;6334255;22;45318;-96
2022/06/15 10:02:49;;;;;;;;;5.67;5.00;;;;;37.53;65.39;101170.34;6316176;22;45175;-92
2022/06/15 10:05:26;;;;;;;;;5.00;5.00;;;;;39.37;63.14;101189.41;6331316;22;45330;-94
2022/06/15 10:07:53;;;;;;;;;5.00;4.33;;;;;41.00;61.06;101207.75;6337204;22;45538;-95
2022/06/15 10:10:18;;;;;;;;;6.67;5.33;;;;;42.31;59.31;101228.69;6332078;22;45529;-94
2022/06/15 10:13:02;;;;;;;;;3.33;3.33;;;;;43.72;56.46;101240.69;6333314;22;45274;-94
2022/06/15 10:16:05;;;;;;;;;5.33;4.33;;;;;45.54;52.69;101260.00;6302906;22;45480;-89
2022/06/15 10:18:46;;;;;;;;;5.00;4.67;;;;;46.83;50.85;101257.59;6288966;22;47250;-93
2022/06/15 10:21:15;;;;;;;;;4.67;4.67;;;;;47.73;49.05;101263.13;6307981;22;45239;-92
2022/06/15 10:23:46;;;;;;;;;6.00;6.00;;;;;48.52;47.38;101273.19;6304896;22;45765;-91
2022/06/15 10:26:24;;;;;;;;;7.00;7.00;;;;;49.39;45.96;101275.66;6338654;22;45283;-91
2022/06/15 10:28:50;;;;;;;;;5.00;5.00;;;;;50.19;45.93;101277.66;6337092;22;45809;-92
2022/06/15 10:31:24;;;;;;;;;4.33;4.33;;;;;51.00;42.93;101282.19;6304107;22;45917;-91
2022/06/15 10:33:50;;;;;;;;;5.67;4.67;;;;;51.81;42.91;101275.03;6330436;22;45548;-93
2022/06/15 10:36:36;;;;;;;;;5.67;5.67;;;;;52.71;41.04;101284.28;6331728;22;45383;-94
2022/06/15 10:39:12;;;;;;;;;5.00;4.67;;;;;53.37;39.54;101278.63;6338816;22;46447;-92
2022/06/15 10:41:46;;;;;;;;;4.00;4.00;;;;;54.04;39.16;101282.88;6332593;22;45788;-88
2022/06/15 10:44:15;;;;;;;;;4.67;4.67;;;;;54.52;38.12;101288.59;6333093;22;45336;-88
2022/06/15 10:46:53;;;;;;;;;4.00;4.00;;;;;54.79;36.59;101293.41;6326682;22;45326;-93
2022/06/15 10:49:22;;;;;;;;;3.00;3.00;;;;;55.00;35.81;101292.31;6273122;22;47698;-94
2022/06/15 10:51:48;;;;;;;;;5.67;5.00;;;;;55.14;34.36;101287.56;6301567;22;45345;-87
2022/06/15 10:54:16;;;;;;;;;4.67;4.67;;;;;55.59;34.60;101293.56;6272811;22;45263;-88
2022/06/15 11:02:38;;;;;;;;;5.67;5.33;;;;;57.40;33.49;101285.19;6300588;22;45427;-89
2022/06/15 11:05:13;;;;;;;;;6.67;6.67;;;;;57.70;32.51;101280.75;6301102;22;45337;-87
2022/06/15 11:07:44;;;;;;;;;4.67;3.33;;;;;57.80;31.96;101288.66;6302104;22;45703;-87
2022/06/15 11:10:32;;;;;;;;;5.33;4.00;;;;;57.96;31.60;101292.81;6300286;22;46555;-87
2022/06/15 11:12:58;;;;;;;;;4.00;4.00;;;;;58.19;31.35;101291.22;6301829;22;45671;-87
2022/06/15 11:18:41;;;;;;;;;5.00;4.67;;;;;58.82;31.41;101290.00;6302883;22;45247;-90
2022/06/15 11:21:18;;;;;;;;;5.00;5.00;;;;;59.07;30.54;101290.88;6296699;22;46481;-88
2022/06/15 11:23:59;;;;;;;;;5.00;5.00;;;;;59.25;30.22;101290.75;6301336;22;45317;-88
2022/06/15 11:29:41;;;;;;;;;6.00;4.67;;;;;59.64;29.65;101289.34;6301614;22;45337;-89
2022/06/15 11:32:21;;;;;;;;;6.67;4.00;;;;;59.67;28.75;101285.13;6271970;22;46928;-88
2022/06/15 11:35:12;;;;;;;;;5.00;5.00;;;;;59.76;26.71;101288.47;6298859;22;45482;-89
2022/06/15 11:37:51;;;;;;;;;4.00;4.00;;;;;59.64;28.71;101283.69;6273975;22;45314;-90
2022/06/15 11:40:26;;;;;;;;;6.67;5.33;;;;;59.36;27.78;101286.16;6271834;22;45767;-89
2022/06/15 11:42:51;;;;;;;;;5.00;4.67;;;;;58.98;27.90;101279.06;6300466;22;46380;-89
2022/06/15 11:45:22;;;;;;;;;8.67;6.00;;;;;59.03;27.76;101288.53;6274765;22;45350;-90
2022/06/15 11:47:50;;;;;;;;;7.00;6.00;;;;;59.21;28.09;101274.53;6318495;22;45367;-90
2022/06/15 11:50:27;;;;;;;;;5.00;5.00;;;;;59.46;28.05;101284.72;6303186;22;45353;-91
2022/06/15 11:53:01;;;;;;;;;6.67;5.00;;;;;59.61;27.55;101284.19;6332380;22;46250;-89
2022/06/15 11:55:52;;;;;;;;;4.00;4.00;;;;;59.65;27.49;101281.69;6354965;22;46062;-90
2022/06/15 11:58:38;;;;;;;;;7.33;6.00;;;;;59.93;27.35;101289.38;6330559;22;45362;-90
2022/06/15 12:01:07;;;;;;;;;7.00;7.00;;;;;60.21;27.89;101288.78;6303747;22;45731;-91
2022/06/15 12:04:03;;;;;;;;;6.00;4.67;;;;;60.37;27.06;101281.41;6332591;22;45319;-89
2022/06/15 12:06:36;;;;;;;;;5.00;5.00;;;;;60.51;27.29;101289.59;6330787;22;45727;-91
2022/06/15 12:09:10;;;;;;;;;6.00;4.00;;;;;60.44;26.84;101296.25;6330723;22;45669;-91
2022/06/15 12:14:55;;;;;;;;;7.67;6.00;;;;;60.26;26.40;101289.69;6330310;22;45809;-90
2022/06/15 12:17:40;;;;;;;;;4.67;4.67;;;;;60.40;26.78;101292.25;6356839;22;45226;-90
2022/06/15 12:20:35;;;;;;;;;6.33;6.33;;;;;60.74;26.79;101291.41;6332280;22;45544;-90
2022/06/15 12:23:20;;;;;;;;;6.67;6.67;;;;;61.08;26.71;101286.81;6331938;22;45194;-90
2022/06/15 12:26:04;;;;;;;;;8.00;6.00;;;;;61.49;26.53;101280.00;6356986;22;46646;-89
2022/06/15 12:28:48;;;;;;;;;6.67;6.00;;;;;61.82;26.26;101283.81;6332212;22;45431;-90
2022/06/15 12:31:31;;;;;;;;;7.00;6.33;;;;;61.90;25.74;101277.69;6331954;22;45300;-89
2022/06/15 12:34:08;;;;;;;;;5.00;5.00;;;;;62.15;25.76;101266.81;6330413;22;45469;-90
2022/06/15 12:36:53;;;;;;;;;6.00;6.00;;;;;62.51;25.31;101273.97;6332074;22;45518;-90
2022/06/15 12:39:33;;;;;;;;;5.00;5.00;;;;;62.10;24.98;101280.97;6303130;22;45403;-90
2022/06/15 12:42:12;;;;;;;;;4.00;4.00;;;;;61.45;25.62;101273.97;6304337;22;45313;-90
2022/06/15 12:45:01;;;;;;;;;6.00;6.00;;;;;60.76;25.34;101277.81;6330405;22;45591;-90
2022/06/15 12:47:29;;;;;;;;;5.33;5.33;;;;;59.85;25.14;101269.13;6354398;22;47987;-90
2022/06/15 12:50:19;;;;;;;;;7.67;6.00;;;;;59.42;26.06;101278.66;6303716;22;45332;-89
2022/06/15 12:52:53;;;;;;;;;7.00;6.00;;;;;59.79;26.00;101285.13;6333116;22;45259;-91
2022/06/15 12:55:40;;;;;;;;;4.67;4.67;;;;;60.00;25.67;101279.88;6332076;22;45278;-90
2022/06/15 12:58:19;;;;;;;;;6.00;6.00;;;;;60.25;26.04;101279.50;6303108;22;47650;-90
2022/06/15 13:00:54;;;;;;;;;6.67;6.00;;;;;60.38;25.89;101274.66;6334101;22;45777;-90
2022/06/15 13:03:37;;;;;;;;;6.00;6.00;;;;;60.68;25.72;101275.41;6341272;22;45431;-88
2022/06/15 13:06:28;;;;;;;;;5.00;5.00;;;;;61.40;25.18;101268.25;6305018;22;45463;-89
2022/06/15 13:09:14;;;;;;;;;8.00;8.00;;;;;62.30;25.86;101271.81;6332651;22;45301;-90
2022/06/15 13:11:58;;;;;;;;;5.33;5.00;;;;;62.94;25.24;101273.16;6331358;22;45306;-89
2022/06/15 13:14:25;;;;;;;;;6.33;5.67;;;;;63.17;24.69;101276.72;6303898;22;45443;-89
2022/06/15 13:16:59;;;;;;;;;4.75;4.75;;;;;63.31;24.48;101286.44;6333388;22;45451;-90
2022/06/15 13:19:35;;;;;;;;;6.00;6.00;;;;;63.28;24.72;101289.00;6332706;22;46459;-89
2022/06/15 13:22:14;;;;;;;;;8.00;7.00;;;;;63.15;24.34;101276.97;6355530;22;46099;-90
2022/06/15 13:25:07;;;;;;;;;4.00;4.00;;;;;62.84;24.06;101285.34;6354456;22;45940;-90
2022/06/15 13:27:37;;;;;;;;;4.67;4.67;;;;;62.64;24.07;101281.16;6333264;22;45271;-90
2022/06/15 13:30:23;;;;;;;;;4.75;4.75;;;;;62.95;24.34;101283.38;6303785;22;48134;-91
2022/06/15 13:32:50;;;;;;;;;8.75;7.75;;;;;63.18;25.16;101284.09;6331694;22;46014;-91
2022/06/15 13:35:41;;;;;;;;;7.50;7.50;;;;;63.24;23.09;101283.00;6338671;22;45368;-91
2022/06/15 13:38:31;;;;;;;;;5.75;5.75;;;;;63.40;23.71;101286.78;6335775;22;45415;-91
2022/06/15 13:41:02;;;;;;;;;5.00;5.00;;;;;63.41;23.75;101281.94;6339852;22;45296;-91
2022/06/15 13:43:29;;;;;;;;;4.75;4.75;;;;;63.45;23.40;101283.09;6334588;22;45387;-90
2022/06/15 13:46:01;;;;;;;;;4.00;4.00;;;;;63.56;24.16;101279.13;6332035;22;45413;-89
2022/06/15 13:48:42;;;;;;;;;6.50;6.50;;;;;63.81;23.79;101273.81;6330399;22;45308;-91
2022/06/15 13:51:16;;;;;;;;;5.75;5.75;;;;;63.90;23.55;101276.94;6305298;22;46954;-90
2022/06/15 13:53:57;;;;;;;;;6.00;6.00;;;;;64.05;23.34;101281.00;6333222;22;45273;-90
2022/06/15 13:56:30;;;;;;;;;5.50;4.50;;;;;64.39;23.67;101280.44;6305309;22;45415;-90